Time;durP1;ratioP1;P1;durP2;ratioP2;P2;SDS_P1;SDS_P2;PMS_P1;PMS_P2;Temp;Humidity;BMP_temperature;BMP_pressure;BME280_temperature;BME280_humidity;BME280_pressure;Samples;Min_cycle;Max_cycle;Signal;HPM_P1;HPM_P2
2021/04/11 00:00:18;;;;;;;0.10;0.10;;;;;;;;;;4991383;28;20057;-64
2021/04/11 00:02:44;;;;;;;0.10;0.10;;;;;;;;;;5013011;28;20052;-65
2021/04/11 00:05:10;;;;;;;0.10;0.10;;;;;;;;;;5030124;28;20038;-65
2021/04/11 00:07:35;;;;;;;0.10;0.10;;;;;;;;;;4996580;28;20113;-66
2021/04/11 00:10:00;;;;;;;0.10;0.10;;;;;;;;;;5031453;28;20033;-65
2021/04/11 00:12:25;;;;;;;0.10;0.10;;;;;;;;;;4996858;28;20295;-65
2021/04/11 00:14:51;;;;;;;0.10;0.10;;;;;;;;;;5013679;28;20041;-65
2021/04/11 00:17:16;;;;;;;0.10;0.10;;;;;;;;;;5030600;28;20104;-65
2021/04/11 00:19:41;;;;;;;0.10;0.10;;;;;;;;;;5014529;28;20040;-65
2021/04/11 00:22:06;;;;;;;0.10;0.10;;;;;;;;;;5013874;28;20438;-65
2021/04/11 00:24:32;;;;;;;0.10;0.10;;;;;;;;;;5010654;28;20084;-65
2021/04/11 00:26:57;;;;;;;0.10;0.10;;;;;;;;;;5013169;28;20092;-65
2021/04/11 00:29:22;;;;;;;0.10;0.10;;;;;;;;;;4997228;28;20409;-66
2021/04/11 00:31:47;;;;;;;0.10;0.10;;;;;;;;;;5013763;28;20513;-66
2021/04/11 00:34:12;;;;;;;0.10;0.10;;;;;;;;;;5013064;28;20367;-65
2021/04/11 00:36:38;;;;;;;0.10;0.10;;;;;;;;;;5012306;28;20474;-66
2021/04/11 00:39:03;;;;;;;0.10;0.10;;;;;;;;;;5011495;28;20021;-66
2021/04/11 00:41:32;;;;;;;0.10;0.10;;;;;;;;;;5014009;28;20308;-65
2021/04/11 00:43:57;;;;;;;0.10;0.10;;;;;;;;;;4996969;28;20026;-65
2021/04/11 00:46:35;;;;;;;0.10;0.10;;;;;;;;;;5013750;28;20130;-65
2021/04/11 00:49:00;;;;;;;0.10;0.10;;;;;;;;;;5010964;28;20036;-65
2021/04/11 00:51:27;;;;;;;0.10;0.10;;;;;;;;;;5030736;28;20441;-66
2021/04/11 00:53:55;;;;;;;0.10;0.10;;;;;;;;;;5013071;28;20117;-65
2021/04/11 00:56:21;;;;;;;0.10;0.10;;;;;;;;;;5013676;28;20032;-65
2021/04/11 00:58:46;;;;;;;0.10;0.10;;;;;;;;;;5013489;28;20386;-65
2021/04/11 01:01:11;;;;;;;0.10;0.10;;;;;;;;;;4995202;28;20285;-66
2021/04/11 01:03:37;;;;;;;0.10;0.10;;;;;;;;;;5030171;28;20273;-66
2021/04/11 01:06:03;;;;;;;0.10;0.10;;;;;;;;;;4991957;28;20033;-65
2021/04/11 01:08:30;;;;;;;0.10;0.10;;;;;;;;;;4990289;28;20490;-65
2021/04/11 01:10:55;;;;;;;0.10;0.10;;;;;;;;;;5012907;28;20036;-65
2021/04/11 01:13:20;;;;;;;0.10;0.10;;;;;;;;;;5024560;28;20457;-65
2021/04/11 01:15:45;;;;;;;0.10;0.10;;;;;;;;;;5005113;28;20278;-65
2021/04/11 01:18:11;;;;;;;0.10;0.10;;;;;;;;;;5010021;28;20112;-65
2021/04/11 01:20:36;;;;;;;0.10;0.10;;;;;;;;;;5011168;28;20169;-65
2021/04/11 01:23:20;;;;;;;0.10;0.10;;;;;;;;;;5011709;28;20127;-65
2021/04/11 01:25:46;;;;;;;0.10;0.10;;;;;;;;;;5029644;28;20440;-65
2021/04/11 01:28:31;;;;;;;0.10;0.10;;;;;;;;;;5011602;28;20030;-65
2021/04/11 01:30:57;;;;;;;0.15;0.15;;;;;;;;;;5010407;28;20479;-65
2021/04/11 01:33:24;;;;;;;0.10;0.10;;;;;;;;;;4994208;28;20029;-65
2021/04/11 01:35:50;;;;;;;0.10;0.10;;;;;;;;;;5011248;28;20515;-65
2021/04/11 01:38:15;;;;;;;0.10;0.10;;;;;;;;;;5012259;28;20029;-65
2021/04/11 01:40:46;;;;;;;0.10;0.10;;;;;;;;;;5012543;28;20037;-66
2021/04/11 01:43:12;;;;;;;0.10;0.10;;;;;;;;;;5029365;28;20361;-65
2021/04/11 01:45:37;;;;;;;0.10;0.10;;;;;;;;;;4996163;28;20087;-65
2021/04/11 01:48:03;;;;;;;0.10;0.10;;;;;;;;;;5010330;28;20276;-65
2021/04/11 01:50:29;;;;;;;0.10;0.10;;;;;;;;;;4989387;28;20033;-65
2021/04/11 01:52:55;;;;;;;0.10;0.10;;;;;;;;;;4984999;28;20045;-65
2021/04/11 01:55:20;;;;;;;0.10;0.10;;;;;;;;;;5005376;28;20029;-65
2021/04/11 01:57:48;;;;;;;0.10;0.10;;;;;;;;;;4995308;28;20284;-65
2021/04/11 02:00:31;;;;;;;0.10;0.10;;;;;;;;;;5012442;28;20033;-65
2021/04/11 02:02:57;;;;;;;0.10;0.10;;;;;;;;;;5012071;28;20512;-65
2021/04/11 02:05:23;;;;;;;0.10;0.10;;;;;;;;;;5012315;28;20034;-65
2021/04/11 02:07:48;;;;;;;0.10;0.10;;;;;;;;;;4995967;28;20034;-65
2021/04/11 02:10:17;;;;;;;0.10;0.10;;;;;;;;;;5012000;28;20060;-65
2021/04/11 02:12:44;;;;;;;0.20;0.20;;;;;;;;;;4993837;28;20284;-65
2021/04/11 02:15:10;;;;;;;0.10;0.10;;;;;;;;;;4995254;28;20041;-65
2021/04/11 02:17:36;;;;;;;0.17;0.17;;;;;;;;;;5011739;28;20047;-65
2021/04/11 02:20:01;;;;;;;0.10;0.10;;;;;;;;;;5010563;28;20029;-65
2021/04/11 02:22:27;;;;;;;0.15;0.15;;;;;;;;;;4993671;28;20490;-65
2021/04/11 02:24:52;;;;;;;0.10;0.10;;;;;;;;;;4993205;28;20441;-66
2021/04/11 02:27:18;;;;;;;0.20;0.20;;;;;;;;;;5011344;28;20375;-66
2021/04/11 02:29:45;;;;;;;0.10;0.10;;;;;;;;;;5010771;28;20268;-66
2021/04/11 02:32:10;;;;;;;0.10;0.10;;;;;;;;;;5010225;28;20037;-66
2021/04/11 02:34:36;;;;;;;0.10;0.10;;;;;;;;;;4990145;28;20144;-66
2021/04/11 02:37:05;;;;;;;0.20;0.20;;;;;;;;;;5028627;28;20088;-66
2021/04/11 02:39:31;;;;;;;0.10;0.10;;;;;;;;;;5010874;28;20344;-66
2021/04/11 02:41:56;;;;;;;0.10;0.10;;;;;;;;;;4994920;28;20033;-66
2021/04/11 02:44:21;;;;;;;0.10;0.10;;;;;;;;;;4994806;28;20100;-66
2021/04/11 02:46:47;;;;;;;0.15;0.15;;;;;;;;;;5029639;28;20041;-66
2021/04/11 02:49:14;;;;;;;0.10;0.10;;;;;;;;;;5031101;28;20821;-66
2021/04/11 02:51:39;;;;;;;0.20;0.20;;;;;;;;;;5029888;28;20044;-66
2021/04/11 02:54:05;;;;;;;0.10;0.10;;;;;;;;;;5031086;28;20679;-66
2021/04/11 02:56:30;;;;;;;0.10;0.10;;;;;;;;;;5013409;28;20040;-66
2021/04/11 02:58:56;;;;;;;0.10;0.10;;;;;;;;;;5030683;28;20025;-66
2021/04/11 03:01:28;;;;;;;0.10;0.10;;;;;;;;;;5030637;28;20083;-66
2021/04/11 03:03:54;;;;;;;0.10;0.10;;;;;;;;;;5034138;28;20068;-66
2021/04/11 03:06:20;;;;;;;0.10;0.10;;;;;;;;;;5034060;28;20032;-66
2021/04/11 03:08:45;;;;;;;0.10;0.10;;;;;;;;;;5034261;28;20493;-65
2021/04/11 03:11:31;;;;;;;0.10;0.10;;;;;;;;;;5033957;28;20033;-66
2021/04/11 03:13:56;;;;;;;0.10;0.10;;;;;;;;;;5033306;28;20119;-66
2021/04/11 03:16:22;;;;;;;0.20;0.20;;;;;;;;;;5016939;28;20152;-66
2021/04/11 03:18:47;;;;;;;0.10;0.10;;;;;;;;;;5033917;28;20052;-66
2021/04/11 03:21:12;;;;;;;0.10;0.10;;;;;;;;;;5033496;28;20060;-66
2021/04/11 03:23:38;;;;;;;0.13;0.13;;;;;;;;;;5034283;28;20056;-66
2021/04/11 03:26:06;;;;;;;0.20;0.20;;;;;;;;;;5033387;28;20110;-66
2021/04/11 03:28:42;;;;;;;0.10;0.10;;;;;;;;;;5034224;28;20029;-66
2021/04/11 03:31:13;;;;;;;0.10;0.10;;;;;;;;;;5033312;28;20473;-66
2021/04/11 03:33:44;;;;;;;0.10;0.10;;;;;;;;;;5034094;28;20037;-66
2021/04/11 03:36:10;;;;;;;0.10;0.10;;;;;;;;;;5035448;28;20404;-66
2021/04/11 03:38:35;;;;;;;0.10;0.10;;;;;;;;;;5033522;28;20025;-66
2021/04/11 03:41:01;;;;;;;0.10;0.10;;;;;;;;;;5017503;28;20036;-67
2021/04/11 03:43:32;;;;;;;0.10;0.10;;;;;;;;;;5018194;28;20759;-67
2021/04/11 03:45:57;;;;;;;0.10;0.10;;;;;;;;;;5015809;28;20041;-67
2021/04/11 03:48:49;;;;;;;0.10;0.10;;;;;;;;;;5016394;28;20142;-67
2021/04/11 03:51:14;;;;;;;0.10;0.10;;;;;;;;;;5046992;28;20112;-67
2021/04/11 03:53:41;;;;;;;0.10;0.10;;;;;;;;;;5033617;28;20741;-67
2021/04/11 03:56:07;;;;;;;0.10;0.10;;;;;;;;;;5017258;28;20303;-67
2021/04/11 03:58:33;;;;;;;0.10;0.10;;;;;;;;;;5033878;28;20029;-67
2021/04/11 04:01:04;;;;;;;0.10;0.10;;;;;;;;;;5033682;28;20029;-64
2021/04/11 04:03:29;;;;;;;0.10;0.10;;;;;;;;;;5032872;28;20060;-64
2021/04/11 04:05:55;;;;;;;0.20;0.20;;;;;;;;;;5016424;28;20061;-67
2021/04/11 04:08:20;;;;;;;0.20;0.20;;;;;;;;;;5033017;28;20034;-67
2021/04/11 04:10:57;;;;;;;0.20;0.20;;;;;;;;;;5033500;28;20025;-67
2021/04/11 04:13:29;;;;;;;0.15;0.15;;;;;;;;;;5032573;28;20048;-67
2021/04/11 04:16:03;;;;;;;0.20;0.20;;;;;;;;;;5033077;28;20405;-67
2021/04/11 04:18:46;;;;;;;0.17;0.17;;;;;;;;;;5033296;28;20028;-67
2021/04/11 04:21:16;;;;;;;0.20;0.20;;;;;;;;;;5049882;28;20060;-67
2021/04/11 04:23:54;;;;;;;0.10;0.10;;;;;;;;;;5033428;28;20063;-67
2021/04/11 04:26:34;;;;;;;0.10;0.10;;;;;;;;;;5051119;28;20591;-67
2021/04/11 04:29:25;;;;;;;0.10;0.10;;;;;;;;;;5050440;28;20112;-67
2021/04/11 04:32:22;;;;;;;0.10;0.10;;;;;;;;;;5006353;28;20029;-67
2021/04/11 04:34:54;;;;;;;0.10;0.10;;;;;;;;;;5015656;28;20037;-67
2021/04/11 04:37:28;;;;;;;0.10;0.10;;;;;;;;;;5050901;28;20025;-67
2021/04/11 04:39:54;;;;;;;0.20;0.20;;;;;;;;;;5031486;28;20029;-67
2021/04/11 04:42:25;;;;;;;0.10;0.10;;;;;;;;;;5050157;28;20125;-67
2021/04/11 04:44:53;;;;;;;0.20;0.20;;;;;;;;;;5030979;28;20477;-67
2021/04/11 04:47:21;;;;;;;0.20;0.20;;;;;;;;;;5030487;28;21382;-66
2021/04/11 04:50:00;;;;;;;0.10;0.10;;;;;;;;;;5031087;28;20037;-66
2021/04/11 04:52:26;;;;;;;0.10;0.10;;;;;;;;;;5013736;28;20486;-66
2021/04/11 04:54:56;;;;;;;0.10;0.10;;;;;;;;;;5029552;28;20477;-66
2021/04/11 04:57:38;;;;;;;0.10;0.10;;;;;;;;;;5012941;28;20021;-66
2021/04/11 05:00:06;;;;;;;0.15;0.15;;;;;;;;;;5044519;28;20025;-66
2021/04/11 05:02:48;;;;;;;0.20;0.20;;;;;;;;;;5036461;28;20091;-66
2021/04/11 05:05:14;;;;;;;0.20;0.20;;;;;;;;;;5005844;28;20493;-66
2021/04/11 05:07:43;;;;;;;0.10;0.10;;;;;;;;;;5027238;28;20032;-66
2021/04/11 05:10:15;;;;;;;0.10;0.10;;;;;;;;;;5030730;28;20036;-66
2021/04/11 05:12:44;;;;;;;0.20;0.20;;;;;;;;;;5031460;28;20508;-66
2021/04/11 05:15:13;;;;;;;0.20;0.20;;;;;;;;;;5044560;28;20060;-66
2021/04/11 05:17:39;;;;;;;0.10;0.10;;;;;;;;;;5030118;28;20760;-66
2021/04/11 05:20:06;;;;;;;0.20;0.20;;;;;;;;;;5030495;28;20037;-66
2021/04/11 05:22:33;;;;;;;0.20;0.20;;;;;;;;;;5026503;28;20040;-66
2021/04/11 05:25:04;;;;;;;0.10;0.10;;;;;;;;;;5031721;28;20473;-66
2021/04/11 05:27:29;;;;;;;0.10;0.10;;;;;;;;;;5028111;28;20028;-67
2021/04/11 05:30:00;;;;;;;0.10;0.10;;;;;;;;;;5049938;28;20028;-66
2021/04/11 05:32:25;;;;;;;0.10;0.10;;;;;;;;;;5049517;28;20283;-67
2021/04/11 05:34:50;;;;;;;0.20;0.20;;;;;;;;;;5008145;28;20092;-66
2021/04/11 05:37:22;;;;;;;0.10;0.10;;;;;;;;;;5028635;28;20767;-67
2021/04/11 05:39:53;;;;;;;0.10;0.10;;;;;;;;;;5024312;28;20113;-67
2021/04/11 05:42:18;;;;;;;0.10;0.10;;;;;;;;;;5032076;28;20030;-67
2021/04/11 05:44:43;;;;;;;0.10;0.10;;;;;;;;;;5027795;28;20048;-67
2021/04/11 05:47:12;;;;;;;0.20;0.20;;;;;;;;;;5049432;28;20047;-67
2021/04/11 05:49:45;;;;;;;0.13;0.13;;;;;;;;;;5048887;28;20736;-67
2021/04/11 05:52:10;;;;;;;0.20;0.20;;;;;;;;;;5031753;28;20099;-67
2021/04/11 05:54:56;;;;;;;0.10;0.10;;;;;;;;;;5031044;28;21529;-67
2021/04/11 05:57:34;;;;;;;0.10;0.10;;;;;;;;;;5048584;28;20037;-67
2021/04/11 06:00:02;;;;;;;0.10;0.10;;;;;;;;;;5015056;28;20033;-67
2021/04/11 06:03:07;;;;;;;0.10;0.10;;;;;;;;;;5014816;28;20485;-67
2021/04/11 06:05:51;;;;;;;0.10;0.10;;;;;;;;;;5002973;28;20166;-67
2021/04/11 06:08:29;;;;;;;0.10;0.10;;;;;;;;;;4991874;28;20064;-67
2021/04/11 06:11:02;;;;;;;0.10;0.10;;;;;;;;;;4995105;28;20060;-67
2021/04/11 06:13:27;;;;;;;0.10;0.10;;;;;;;;;;5011163;28;20033;-67
2021/04/11 06:15:56;;;;;;;0.10;0.10;;;;;;;;;;5030712;28;20043;-67
2021/04/11 06:18:21;;;;;;;0.10;0.10;;;;;;;;;;5031577;28;20354;-67
2021/04/11 06:20:47;;;;;;;0.10;0.10;;;;;;;;;;5031412;28;20103;-67
2021/04/11 06:23:12;;;;;;;0.10;0.10;;;;;;;;;;5015032;28;20029;-67
2021/04/11 06:25:42;;;;;;;0.10;0.10;;;;;;;;;;5048753;28;20434;-67
2021/04/11 06:28:13;;;;;;;0.10;0.10;;;;;;;;;;5031775;28;20791;-67
2021/04/11 06:30:41;;;;;;;0.10;0.10;;;;;;;;;;5051070;28;20053;-67
2021/04/11 06:33:08;;;;;;;0.10;0.10;;;;;;;;;;5033795;28;20025;-67
2021/04/11 06:35:35;;;;;;;0.10;0.10;;;;;;;;;;5032436;28;20492;-67
2021/04/11 06:38:00;;;;;;;0.10;0.10;;;;;;;;;;5034052;28;20052;-67
2021/04/11 06:40:28;;;;;;;0.10;0.10;;;;;;;;;;5035501;28;20059;-66
2021/04/11 06:42:57;;;;;;;0.10;0.10;;;;;;;;;;5034840;28;20060;-66
2021/04/11 06:45:29;;;;;;;0.10;0.10;;;;;;;;;;5017846;28;20099;-66
2021/04/11 06:48:01;;;;;;;0.10;0.10;;;;;;;;;;5052564;28;20397;-67
2021/04/11 06:50:45;;;;;;;0.10;0.10;;;;;;;;;;5018340;28;20511;-66
2021/04/11 06:53:13;;;;;;;0.10;0.10;;;;;;;;;;5052215;28;20072;-66
2021/04/11 06:55:57;;;;;;;0.10;0.10;;;;;;;;;;5034886;28;20029;-66
2021/04/11 06:58:40;;;;;;;0.10;0.10;;;;;;;;;;5052409;28;20028;-67
2021/04/11 07:01:18;;;;;;;0.10;0.10;;;;;;;;;;5052350;28;20060;-67
2021/04/11 07:03:43;;;;;;;0.10;0.10;;;;;;;;;;5034677;28;20029;-67
2021/04/11 07:06:08;;;;;;;0.10;0.10;;;;;;;;;;5051916;28;20043;-67
2021/04/11 07:08:52;;;;;;;0.10;0.10;;;;;;;;;;5034642;28;20305;-66
2021/04/11 07:11:23;;;;;;;0.10;0.10;;;;;;;;;;5033960;28;20267;-66
2021/04/11 07:14:04;;;;;;;0.10;0.10;;;;;;;;;;5052316;28;20385;-67
2021/04/11 07:16:32;;;;;;;0.10;0.10;;;;;;;;;;5017545;28;20128;-67
2021/04/11 07:19:01;;;;;;;0.10;0.10;;;;;;;;;;5018242;28;20032;-67
2021/04/11 07:22:02;;;;;;;0.10;0.10;;;;;;;;;;5034215;28;20033;-67
2021/04/11 07:24:46;;;;;;;0.10;0.10;;;;;;;;;;4990383;28;20069;-67
2021/04/11 07:27:50;;;;;;;0.10;0.10;;;;;;;;;;5046130;28;20044;-67
2021/04/11 07:30:15;;;;;;;0.10;0.10;;;;;;;;;;5004548;28;20490;-67
2021/04/11 07:32:43;;;;;;;0.10;0.10;;;;;;;;;;5015005;28;20041;-67
2021/04/11 07:35:15;;;;;;;0.08;0.08;;;;;;;;;;5021675;28;20309;-67
2021/04/11 07:38:00;;;;;;;0.10;0.10;;;;;;;;;;5031216;28;20033;-67
2021/04/11 07:40:41;;;;;;;0.10;0.10;;;;;;;;;;5044999;28;20548;-67
2021/04/11 07:43:18;;;;;;;0.10;0.10;;;;;;;;;;5032637;28;20071;-67
2021/04/11 07:46:02;;;;;;;0.10;0.10;;;;;;;;;;5047799;28;20801;-67
2021/04/11 07:48:42;;;;;;;0.10;0.10;;;;;;;;;;5032942;28;20128;-67
2021/04/11 07:51:26;;;;;;;0.10;0.10;;;;;;;;;;5051469;28;20029;-67
2021/04/11 07:53:54;;;;;;;0.00;0.00;;;;;;;;;;5033594;28;20040;-67
2021/04/11 07:56:29;;;;;;;0.10;0.10;;;;;;;;;;5047491;28;20033;-67
2021/04/11 07:59:03;;;;;;;0.10;0.10;;;;;;;;;;5051663;28;20051;-67
2021/04/11 08:01:44;;;;;;;0.10;0.10;;;;;;;;;;5033707;28;20071;-67
2021/04/11 08:04:28;;;;;;;0.00;0.00;;;;;;;;;;5033236;28;20386;-67
2021/04/11 08:07:12;;;;;;;0.10;0.10;;;;;;;;;;5052062;28;20591;-67
2021/04/11 08:09:47;;;;;;;0.10;0.10;;;;;;;;;;5051828;28;20370;-67
2021/04/11 08:12:16;;;;;;;0.10;0.10;;;;;;;;;;5014851;28;20064;-67
2021/04/11 08:14:53;;;;;;;0.03;0.03;;;;;;;;;;5041735;28;20036;-67
2021/04/11 08:17:21;;;;;;;0.10;0.10;;;;;;;;;;5050022;28;20593;-67
2021/04/11 08:19:53;;;;;;;0.10;0.10;;;;;;;;;;5049217;28;20021;-66
2021/04/11 08:22:24;;;;;;;0.10;0.10;;;;;;;;;;5031911;28;20029;-67
2021/04/11 08:24:55;;;;;;;0.00;0.00;;;;;;;;;;5032994;28;20037;-67
2021/04/11 08:27:40;;;;;;;0.10;0.10;;;;;;;;;;5031869;28;20029;-67
2021/04/11 08:30:25;;;;;;;0.00;0.00;;;;;;;;;;5031102;28;20687;-68
2021/04/11 08:32:56;;;;;;;0.10;0.10;;;;;;;;;;5048376;28;20063;-68
2021/04/11 08:35:27;;;;;;;0.10;0.10;;;;;;;;;;5047063;28;20029;-66
2021/04/11 08:38:07;;;;;;;0.00;0.00;;;;;;;;;;5049689;28;20032;-67
2021/04/11 08:40:44;;;;;;;0.10;0.10;;;;;;;;;;5049702;28;20512;-67
2021/04/11 08:43:12;;;;;;;0.00;0.00;;;;;;;;;;5014182;28;20037;-67
2021/04/11 08:45:41;;;;;;;0.00;0.00;;;;;;;;;;5028486;28;20030;-67
2021/04/11 08:48:11;;;;;;;0.00;0.00;;;;;;;;;;5048773;28;20041;-66
2021/04/11 08:50:53;;;;;;;0.00;0.00;;;;;;;;;;5030877;28;20650;-66
2021/04/11 08:53:48;;;;;;;0.10;0.10;;;;;;;;;;5007569;28;20372;-67
2021/04/11 08:56:19;;;;;;;0.00;0.00;;;;;;;;;;5012581;28;20124;-66
2021/04/11 08:59:03;;;;;;;0.00;0.00;;;;;;;;;;5023477;28;20029;-67
2021/04/11 09:01:47;;;;;;;0.00;0.00;;;;;;;;;;5036246;28;20469;-66
2021/04/11 09:04:19;;;;;;;0.05;0.05;;;;;;;;;;5031031;28;20036;-66
2021/04/11 09:06:48;;;;;;;0.00;0.00;;;;;;;;;;5043746;28;20037;-67
2021/04/11 09:09:33;;;;;;;0.00;0.00;;;;;;;;;;5021662;28;20512;-67
2021/04/11 09:12:01;;;;;;;0.00;0.00;;;;;;;;;;5043763;28;20029;-67
2021/04/11 09:14:35;;;;;;;0.00;0.00;;;;;;;;;;5039627;28;20033;-68
2021/04/11 09:17:17;;;;;;;0.00;0.00;;;;;;;;;;5043013;28;20548;-68
2021/04/11 09:19:46;;;;;;;0.00;0.00;;;;;;;;;;5010357;28;20040;-68
2021/04/11 09:22:11;;;;;;;0.00;0.00;;;;;;;;;;5013142;28;20105;-68
2021/04/11 09:24:39;;;;;;;0.00;0.00;;;;;;;;;;5039754;28;20037;-68
2021/04/11 09:27:07;;;;;;;0.05;0.05;;;;;;;;;;5047546;28;20405;-68
2021/04/11 09:29:39;;;;;;;0.00;0.00;;;;;;;;;;5048205;28;20056;-68
2021/04/11 09:32:10;;;;;;;0.00;0.00;;;;;;;;;;5046630;28;20037;-68
2021/04/11 09:34:38;;;;;;;0.00;0.00;;;;;;;;;;5039823;28;20033;-68
2021/04/11 09:37:03;;;;;;;0.00;0.00;;;;;;;;;;5027312;28;20425;-68
2021/04/11 09:39:37;;;;;;;0.00;0.00;;;;;;;;;;5031451;28;20029;-68
2021/04/11 09:42:06;;;;;;;0.03;0.03;;;;;;;;;;5030065;28;20268;-68
2021/04/11 09:44:31;;;;;;;0.00;0.00;;;;;;;;;;5025928;28;20421;-68
2021/04/11 09:47:08;;;;;;;0.00;0.00;;;;;;;;;;5048828;28;20044;-68
2021/04/11 09:49:42;;;;;;;0.00;0.00;;;;;;;;;;5046948;28;20357;-68
2021/04/11 09:52:07;;;;;;;0.00;0.00;;;;;;;;;;5030088;28;20033;-68
2021/04/11 09:54:53;;;;;;;0.00;0.00;;;;;;;;;;5043027;28;20068;-67
2021/04/11 09:57:28;;;;;;;0.00;0.00;;;;;;;;;;5024726;28;20345;-68
2021/04/11 10:00:19;;;;;;;0.00;0.00;;;;;;;;;;5030823;28;20041;-68
2021/04/11 10:02:47;;;;;;;0.00;0.00;;;;;;;;;;5005851;28;20037;-68
2021/04/11 10:05:25;;;;;;;0.00;0.00;;;;;;;;;;5040068;28;20609;-68
2021/04/11 10:08:08;;;;;;;0.00;0.00;;;;;;;;;;5021856;28;20080;-68
2021/04/11 10:10:40;;;;;;;0.00;0.00;;;;;;;;;;5014637;28;20033;-68
2021/04/11 10:13:14;;;;;;;0.00;0.00;;;;;;;;;;5032727;28;20033;-68
2021/04/11 10:15:52;;;;;;;0.00;0.00;;;;;;;;;;5018928;28;20127;-67
2021/04/11 10:18:26;;;;;;;0.00;0.00;;;;;;;;;;5052587;28;20025;-68
2021/04/11 10:20:57;;;;;;;0.00;0.00;;;;;;;;;;5035218;28;20481;-68
2021/04/11 10:23:39;;;;;;;0.00;0.00;;;;;;;;;;5023539;28;20036;-68
2021/04/11 10:26:07;;;;;;;0.00;0.00;;;;;;;;;;5016957;28;20033;-68
2021/04/11 10:28:32;;;;;;;0.00;0.00;;;;;;;;;;5008097;28;20091;-67
2021/04/11 10:31:24;;;;;;;0.00;0.00;;;;;;;;;;5047144;28;20037;-67
2021/04/11 10:33:54;;;;;;;0.00;0.00;;;;;;;;;;5046685;28;20760;-68
2021/04/11 10:36:23;;;;;;;0.00;0.00;;;;;;;;;;5018874;28;20537;-68
2021/04/11 10:38:49;;;;;;;0.00;0.00;;;;;;;;;;5028761;28;20032;-68
2021/04/11 10:41:30;;;;;;;0.00;0.00;;;;;;;;;;5035088;28;20167;-68
2021/04/11 10:44:14;;;;;;;0.00;0.00;;;;;;;;;;5051818;28;20507;-68
2021/04/11 10:46:42;;;;;;;0.00;0.00;;;;;;;;;;5045133;28;20040;-68
2021/04/11 10:49:14;;;;;;;0.00;0.00;;;;;;;;;;5034505;28;20462;-68
2021/04/11 10:51:39;;;;;;;0.00;0.00;;;;;;;;;;5012845;28;20067;-68
2021/04/11 10:54:25;;;;;;;0.00;0.00;;;;;;;;;;5035056;28;20057;-67
2021/04/11 10:57:09;;;;;;;0.00;0.00;;;;;;;;;;5015821;28;20259;-67
2021/04/11 10:59:43;;;;;;;0.00;0.00;;;;;;;;;;5049943;28;20048;-66
2021/04/11 11:02:08;;;;;;;0.00;0.00;;;;;;;;;;5034183;28;20083;-66
2021/04/11 11:05:00;;;;;;;0.00;0.00;;;;;;;;;;5049207;28;20032;-67
2021/04/11 11:07:37;;;;;;;0.00;0.00;;;;;;;;;;5043968;28;20037;-67
2021/04/11 11:10:21;;;;;;;0.00;0.00;;;;;;;;;;5030616;28;20089;-68
2021/04/11 11:12:46;;;;;;;0.00;0.00;;;;;;;;;;5034805;28;20032;-68
2021/04/11 11:15:23;;;;;;;0.00;0.00;;;;;;;;;;5052592;28;20040;-68
2021/04/11 11:18:01;;;;;;;0.00;0.00;;;;;;;;;;5014470;28;20367;-67
2021/04/11 11:20:38;;;;;;;0.00;0.00;;;;;;;;;;5033578;28;20063;-68
2021/04/11 11:23:23;;;;;;;0.00;0.00;;;;;;;;;;5033907;28;20083;-68
2021/04/11 11:25:51;;;;;;;0.00;0.00;;;;;;;;;;5045660;28;20072;-68
2021/04/11 11:28:38;;;;;;;0.00;0.00;;;;;;;;;;5029169;28;20029;-68
2021/04/11 11:31:15;;;;;;;0.00;0.00;;;;;;;;;;5018875;28;20071;-67
2021/04/11 11:33:40;;;;;;;0.00;0.00;;;;;;;;;;5036906;28;20031;-67
2021/04/11 11:36:20;;;;;;;0.00;0.00;;;;;;;;;;5049762;28;20108;-67
2021/04/11 11:38:48;;;;;;;0.08;0.08;;;;;;;;;;5043587;28;20037;-67
2021/04/11 11:41:17;;;;;;;0.00;0.00;;;;;;;;;;5032400;28;20044;-66
2021/04/11 11:44:03;;;;;;;0.00;0.00;;;;;;;;;;5048442;28;20481;-66
2021/04/11 11:46:58;;;;;;;0.00;0.00;;;;;;;;;;5019542;28;20053;-66
2021/04/11 11:49:26;;;;;;;0.00;0.00;;;;;;;;;;4990156;28;20048;-66
2021/04/11 11:51:51;;;;;;;0.10;0.10;;;;;;;;;;4995963;28;20091;-66
2021/04/11 11:54:31;;;;;;;0.10;0.10;;;;;;;;;;5026063;28;20100;-66
2021/04/11 11:57:08;;;;;;;0.03;0.03;;;;;;;;;;5029389;28;20657;-66
2021/04/11 11:59:41;;;;;;;0.00;0.00;;;;;;;;;;5025973;28;20032;-66
2021/04/11 12:02:25;;;;;;;0.10;0.10;;;;;;;;;;5005880;28;20036;-66
2021/04/11 12:05:05;;;;;;;0.10;0.10;;;;;;;;;;5030462;28;20080;-66
2021/04/11 12:07:41;;;;;;;0.03;0.03;;;;;;;;;;5027394;28;20044;-66
2021/04/11 12:10:08;;;;;;;0.10;0.10;;;;;;;;;;5013188;28;20033;-67
2021/04/11 12:12:35;;;;;;;0.08;0.08;;;;;;;;;;4991946;28;20037;-66
2021/04/11 12:15:19;;;;;;;0.10;0.10;;;;;;;;;;5013303;28;20026;-66
2021/04/11 12:17:59;;;;;;;0.10;0.10;;;;;;;;;;5012747;28;20099;-66
2021/04/11 12:20:49;;;;;;;0.10;0.10;;;;;;;;;;5013060;28;20122;-66
2021/04/11 12:23:17;;;;;;;0.10;0.10;;;;;;;;;;4984959;28;20045;-66
2021/04/11 12:25:42;;;;;;;0.10;0.10;;;;;;;;;;5030640;28;20093;-66
2021/04/11 12:28:14;;;;;;;0.00;0.00;;;;;;;;;;5029690;28;20049;-66
2021/04/11 12:30:39;;;;;;;0.00;0.00;;;;;;;;;;5030048;28;20141;-66
2021/04/11 12:33:11;;;;;;;0.10;0.10;;;;;;;;;;5012885;28;20100;-66
2021/04/11 12:36:02;;;;;;;0.00;0.00;;;;;;;;;;5026605;28;20056;-66
2021/04/11 12:38:41;;;;;;;0.10;0.10;;;;;;;;;;5023545;28;20053;-66
2021/04/11 12:41:21;;;;;;;0.10;0.10;;;;;;;;;;5012657;28;20029;-67
2021/04/11 12:43:57;;;;;;;0.10;0.10;;;;;;;;;;5008771;28;20564;-67
2021/04/11 12:46:41;;;;;;;0.10;0.10;;;;;;;;;;5002931;28;20060;-67
2021/04/11 12:49:15;;;;;;;0.10;0.10;;;;;;;;;;5028856;28;20415;-67
2021/04/11 12:51:58;;;;;;;0.10;0.10;;;;;;;;;;5030084;28;20036;-67
2021/04/11 12:54:30;;;;;;;0.10;0.10;;;;;;;;;;5011250;28;20823;-66
2021/04/11 12:56:56;;;;;;;0.10;0.10;;;;;;;;;;4996441;28;20578;-66
2021/04/11 12:59:27;;;;;;;0.00;0.00;;;;;;;;;;4995814;28;20048;-66
2021/04/11 13:01:56;;;;;;;0.10;0.10;;;;;;;;;;5012266;28;20482;-66
2021/04/11 13:04:30;;;;;;;0.00;0.00;;;;;;;;;;5012654;28;20061;-66
2021/04/11 13:06:55;;;;;;;0.10;0.10;;;;;;;;;;5013069;28;20037;-66
2021/04/11 13:09:33;;;;;;;0.10;0.10;;;;;;;;;;5011864;28;20033;-65
2021/04/11 13:12:17;;;;;;;0.10;0.10;;;;;;;;;;5012051;28;20536;-65
2021/04/11 13:14:44;;;;;;;0.10;0.10;;;;;;;;;;5028961;28;20541;-65
2021/04/11 13:17:12;;;;;;;0.00;0.00;;;;;;;;;;5012289;28;20190;-65
2021/04/11 13:19:41;;;;;;;0.00;0.00;;;;;;;;;;5009825;28;20039;-65
2021/04/11 13:22:17;;;;;;;0.10;0.10;;;;;;;;;;5009130;28;20029;-65
2021/04/11 13:24:51;;;;;;;0.10;0.10;;;;;;;;;;4994071;28;20040;-65
2021/04/11 13:27:27;;;;;;;0.00;0.00;;;;;;;;;;4994595;28;20124;-66
2021/04/11 13:30:02;;;;;;;0.10;0.10;;;;;;;;;;4993485;28;20103;-66
2021/04/11 13:32:27;;;;;;;0.10;0.10;;;;;;;;;;5010747;28;20035;-65
2021/04/11 13:34:52;;;;;;;0.10;0.10;;;;;;;;;;5027668;28;20545;-66
2021/04/11 13:37:18;;;;;;;0.10;0.10;;;;;;;;;;5028482;28;20029;-66
2021/04/11 13:39:45;;;;;;;0.10;0.10;;;;;;;;;;5011841;28;20303;-66
2021/04/11 13:42:16;;;;;;;0.00;0.00;;;;;;;;;;5028164;28;20343;-66
2021/04/11 13:44:45;;;;;;;0.10;0.10;;;;;;;;;;5027376;28;20040;-66
2021/04/11 13:47:24;;;;;;;0.10;0.10;;;;;;;;;;5010401;28;20053;-66
2021/04/11 13:50:00;;;;;;;0.10;0.10;;;;;;;;;;4993630;28;20556;-66
2021/04/11 13:52:44;;;;;;;0.00;0.00;;;;;;;;;;4993133;28;20116;-65
2021/04/11 13:55:21;;;;;;;0.10;0.10;;;;;;;;;;5027740;28;20037;-65
2021/04/11 13:57:49;;;;;;;0.00;0.00;;;;;;;;;;5009212;28;20363;-65
2021/04/11 14:00:24;;;;;;;0.10;0.10;;;;;;;;;;5027249;28;20088;-66
2021/04/11 14:02:49;;;;;;;0.10;0.10;;;;;;;;;;5011209;28;20100;-65
2021/04/11 14:05:25;;;;;;;0.10;0.10;;;;;;;;;;5029621;28;20493;-65
2021/04/11 14:07:58;;;;;;;0.10;0.10;;;;;;;;;;5010896;28;20091;-66
2021/04/11 14:10:42;;;;;;;0.00;0.00;;;;;;;;;;5011615;28;20508;-66
2021/04/11 14:13:26;;;;;;;0.10;0.10;;;;;;;;;;5011910;28;20037;-66
2021/04/11 14:15:55;;;;;;;0.10;0.10;;;;;;;;;;5029012;28;20486;-65
2021/04/11 14:18:22;;;;;;;0.10;0.10;;;;;;;;;;5010712;28;20606;-65
2021/04/11 14:20:48;;;;;;;0.10;0.10;;;;;;;;;;5011583;28;20037;-65
2021/04/11 14:23:17;;;;;;;0.10;0.10;;;;;;;;;;5011859;28;20060;-65
2021/04/11 14:25:47;;;;;;;0.10;0.10;;;;;;;;;;5027578;28;20040;-65
2021/04/11 14:28:31;;;;;;;0.10;0.10;;;;;;;;;;5010058;28;20037;-65
2021/04/11 14:31:12;;;;;;;0.10;0.10;;;;;;;;;;5028972;28;20355;-65
2021/04/11 14:33:39;;;;;;;0.10;0.10;;;;;;;;;;5009444;28;20030;-65
2021/04/11 14:36:06;;;;;;;0.10;0.10;;;;;;;;;;5010743;28;20044;-65
2021/04/11 14:38:41;;;;;;;0.10;0.10;;;;;;;;;;5027411;28;20083;-66
2021/04/11 14:41:07;;;;;;;0.10;0.10;;;;;;;;;;5008646;28;20033;-65
2021/04/11 14:43:38;;;;;;;0.00;0.00;;;;;;;;;;5010119;28;20040;-65
2021/04/11 14:46:12;;;;;;;0.10;0.10;;;;;;;;;;5000777;28;20053;-65
2021/04/11 14:48:38;;;;;;;0.10;0.10;;;;;;;;;;5047243;28;20061;-66
2021/04/11 14:51:09;;;;;;;0.00;0.00;;;;;;;;;;5029893;28;20037;-65
2021/04/11 14:53:57;;;;;;;0.10;0.10;;;;;;;;;;5047517;28;20510;-66
2021/04/11 14:56:22;;;;;;;0.10;0.10;;;;;;;;;;5016105;28;20095;-66
2021/04/11 14:59:00;;;;;;;0.10;0.10;;;;;;;;;;5029811;28;20040;-65
2021/04/11 15:01:29;;;;;;;0.10;0.10;;;;;;;;;;5049705;28;20620;-66
2021/04/11 15:04:10;;;;;;;0.10;0.10;;;;;;;;;;5032104;28;20033;-66
2021/04/11 15:06:40;;;;;;;0.10;0.10;;;;;;;;;;5050580;28;20056;-66
2021/04/11 15:09:16;;;;;;;0.10;0.10;;;;;;;;;;5031615;28;20029;-66
2021/04/11 15:11:43;;;;;;;0.10;0.10;;;;;;;;;;5032850;28;20094;-65